ELY192 UACC-LLBG
Flight info
| Callsign | ELY192 |
|---|---|
| Flight time | N/A |
| Altitude | 34000 |
| Route | VETUB2A VETUB P574 UTORI/K0880F360 P574 NOGBU N37 IPLED A921 KUFAN/N0473F360 N61 NOLGA UG261 TBN UW706 SIV UT284 EVKIT/N0477F370 UB545 VESAR DCT TUZIB L189 ZUKKO |
| Aircraft | B772/H-SDE2E3FGHIJ5LORVWXY/LB1D1 |
Departure
| Time | 2026-04-28 14:37 |
|---|---|
| Airport | Nursultan Nazarbayev International Airport (UACC) |
Arrival
| Time | N/A |
|---|---|
| Airport | Ben Gurion International Airport (LLBG) |
| Time | Latitude | Longitude | Altitude | Speed | Heading |
|---|---|---|---|---|---|
| 2026-04-28 14:18 | 51.02433 | 71.45959 | 1164 ft | 0 kts | 45° |
| 2026-04-28 14:29 | 51.02445 | 71.45985 | 1168 ft | 4 kts | 56° |
| 2026-04-28 14:29 | 51.02452 | 71.46002 | 1168 ft | 0 kts | 60° |
| 2026-04-28 14:30 | 51.02461 | 71.46034 | 1168 ft | 4 kts | 67° |
| 2026-04-28 14:30 | 51.02465 | 71.46066 | 1168 ft | 4 kts | 105° |
| 2026-04-28 14:30 | 51.02453 | 71.46079 | 1168 ft | 0 kts | 314° |
| 2026-04-28 14:31 | 51.02451 | 71.46055 | 1168 ft | 5 kts | 238° |
| 2026-04-28 14:31 | 51.02420 | 71.46081 | 1164 ft | 6 kts | 126° |
| 2026-04-28 14:32 | 51.02392 | 71.46144 | 1167 ft | 8 kts | 122° |
| 2026-04-28 14:32 | 51.02361 | 71.46226 | 1166 ft | 9 kts | 116° |
| 2026-04-28 14:32 | 51.02359 | 71.46327 | 1164 ft | 10 kts | 56° |
| 2026-04-28 14:32 | 51.02441 | 71.46448 | 1165 ft | 18 kts | 43° |
| 2026-04-28 14:33 | 51.02533 | 71.46586 | 1164 ft | 18 kts | 43° |
| 2026-04-28 14:33 | 51.02624 | 71.46725 | 1168 ft | 18 kts | 44° |
| 2026-04-28 14:33 | 51.02719 | 71.46876 | 1166 ft | 19 kts | 46° |
| 2026-04-28 14:33 | 51.02812 | 71.47030 | 1163 ft | 19 kts | 47° |
| 2026-04-28 14:34 | 51.03003 | 71.47331 | 1164 ft | 19 kts | 45° |
| 2026-04-28 14:34 | 51.03099 | 71.47481 | 1167 ft | 19 kts | 44° |
| 2026-04-28 14:34 | 51.03198 | 71.47633 | 1166 ft | 20 kts | 44° |
| 2026-04-28 14:35 | 51.03297 | 71.47786 | 1166 ft | 20 kts | 44° |
| 2026-04-28 14:35 | 51.03395 | 71.47940 | 1166 ft | 20 kts | 48° |
| 2026-04-28 14:35 | 51.03433 | 71.48145 | 1168 ft | 20 kts | 89° |
| 2026-04-28 14:35 | 51.03378 | 71.48318 | 1165 ft | 13 kts | 167° |
| 2026-04-28 14:36 | 51.03319 | 71.48282 | 1169 ft | 1 kts | 224° |
| 2026-04-28 14:36 | 51.03178 | 71.48061 | 1166 ft | 60 kts | 224° |
| 2026-04-28 14:36 | 51.02726 | 71.47366 | 1165 ft | 119 kts | 224° |
| 2026-04-28 14:36 | 51.02011 | 71.46240 | 1168 ft | 169 kts | 223° |
| 2026-04-28 14:37 | 51.01110 | 71.44848 | 1433 ft | 189 kts | 222° |
| 2026-04-28 14:37 | 51.00138 | 71.43392 | 2020 ft | 196 kts | 221° |
| 2026-04-28 14:37 | 50.99173 | 71.41858 | 2751 ft | 199 kts | 221° |
| 2026-04-28 14:37 | 50.98193 | 71.40267 | 3188 ft | 205 kts | 221° |
| 2026-04-28 14:38 | 50.97174 | 71.38630 | 3550 ft | 211 kts | 221° |
| 2026-04-28 14:38 | 50.96194 | 71.36866 | 3809 ft | 222 kts | 237° |
| 2026-04-28 14:38 | 50.95745 | 71.34415 | 3904 ft | 245 kts | 265° |
| 2026-04-28 14:38 | 50.95971 | 71.31637 | 4105 ft | 266 kts | 289° |
| 2026-04-28 14:39 | 50.96656 | 71.28851 | 4439 ft | 275 kts | 286° |
| 2026-04-28 14:39 | 50.96775 | 71.25845 | 4874 ft | 275 kts | 259° |
| 2026-04-28 14:39 | 50.96461 | 71.22832 | 5435 ft | 280 kts | 260° |
| 2026-04-28 14:39 | 50.96218 | 71.19778 | 6235 ft | 278 kts | 262° |
| 2026-04-28 14:40 | 50.96008 | 71.16744 | 7016 ft | 276 kts | 262° |
| 2026-04-28 14:40 | 50.95939 | 71.15717 | 7235 ft | 277 kts | 262° |
| 2026-04-28 14:40 | 50.95601 | 71.10610 | 8296 ft | 282 kts | 262° |
| 2026-04-28 14:40 | 50.95390 | 71.07501 | 8958 ft | 285 kts | 262° |
| 2026-04-28 14:41 | 50.95179 | 71.04373 | 9619 ft | 287 kts | 262° |
| 2026-04-28 14:41 | 50.94967 | 71.01214 | 10246 ft | 289 kts | 262° |
| 2026-04-28 14:41 | 50.94750 | 70.98021 | 10838 ft | 292 kts | 262° |
| 2026-04-28 14:41 | 50.94530 | 70.94807 | 11434 ft | 295 kts | 262° |
| 2026-04-28 14:42 | 50.94307 | 70.91562 | 12052 ft | 297 kts | 262° |
| 2026-04-28 14:42 | 50.94083 | 70.88289 | 12692 ft | 300 kts | 262° |
| 2026-04-28 14:42 | 50.93854 | 70.84984 | 13339 ft | 303 kts | 262° |
| 2026-04-28 14:42 | 50.93622 | 70.81641 | 14028 ft | 306 kts | 263° |
| 2026-04-28 14:43 | 50.93299 | 70.78305 | 14595 ft | 307 kts | 253° |
| 2026-04-28 14:43 | 50.92558 | 70.75128 | 15190 ft | 308 kts | 244° |
| 2026-04-28 14:43 | 50.91488 | 70.72114 | 15503 ft | 324 kts | 236° |
| 2026-04-28 14:43 | 50.90145 | 70.69106 | 15655 ft | 344 kts | 233° |
| 2026-04-28 14:44 | 50.88679 | 70.65981 | 15805 ft | 364 kts | 233° |
| 2026-04-28 14:44 | 50.87132 | 70.62671 | 16007 ft | 382 kts | 233° |
| 2026-04-28 14:44 | 50.85540 | 70.59219 | 16428 ft | 394 kts | 234° |
| 2026-04-28 14:44 | 50.83931 | 70.55677 | 17085 ft | 399 kts | 234° |
| 2026-04-28 14:45 | 50.82309 | 70.52082 | 17801 ft | 403 kts | 235° |
| 2026-04-28 14:45 | 50.80679 | 70.48451 | 18589 ft | 406 kts | 235° |
| 2026-04-28 14:45 | 50.79040 | 70.44797 | 19255 ft | 409 kts | 235° |
| 2026-04-28 14:45 | 50.77953 | 70.42371 | 19666 ft | 412 kts | 235° |
| 2026-04-28 14:46 | 50.75721 | 70.37402 | 20502 ft | 417 kts | 235° |
| 2026-04-28 14:46 | 50.74059 | 70.33707 | 21115 ft | 421 kts | 236° |
| 2026-04-28 14:46 | 50.72327 | 70.29866 | 21758 ft | 425 kts | 236° |
| 2026-04-28 14:46 | 50.70626 | 70.26099 | 22381 ft | 428 kts | 236° |
| 2026-04-28 14:47 | 50.69015 | 70.22120 | 22942 ft | 432 kts | 242° |
| 2026-04-28 14:47 | 50.67666 | 70.17878 | 23521 ft | 435 kts | 248° |
| 2026-04-28 14:47 | 50.66598 | 70.13419 | 24018 ft | 437 kts | 251° |
| 2026-04-28 14:47 | 50.65584 | 70.08874 | 24469 ft | 440 kts | 251° |
| 2026-04-28 14:48 | 50.64563 | 70.04321 | 24931 ft | 443 kts | 251° |
| 2026-04-28 14:48 | 50.63527 | 69.99745 | 25415 ft | 444 kts | 251° |
| 2026-04-28 14:48 | 50.62482 | 69.95167 | 25887 ft | 445 kts | 251° |
| 2026-04-28 14:48 | 50.61426 | 69.90566 | 26293 ft | 448 kts | 251° |
| 2026-04-28 14:49 | 50.60360 | 69.85946 | 26657 ft | 451 kts | 251° |
| 2026-04-28 14:49 | 50.59284 | 69.81301 | 27028 ft | 453 kts | 251° |
| 2026-04-28 14:49 | 50.58200 | 69.76629 | 27385 ft | 455 kts | 251° |
| 2026-04-28 14:49 | 50.57110 | 69.71944 | 27750 ft | 457 kts | 251° |
| 2026-04-28 14:50 | 50.56012 | 69.67231 | 28099 ft | 460 kts | 251° |
| 2026-04-28 14:50 | 50.54909 | 69.62502 | 28429 ft | 462 kts | 251° |
| 2026-04-28 14:50 | 50.54159 | 69.59296 | 28643 ft | 463 kts | 251° |
| 2026-04-28 14:50 | 50.53043 | 69.54539 | 28969 ft | 465 kts | 251° |
| 2026-04-28 14:51 | 50.51558 | 69.48216 | 29355 ft | 467 kts | 251° |
| 2026-04-28 14:51 | 50.50795 | 69.44978 | 29518 ft | 469 kts | 251° |
| 2026-04-28 14:51 | 50.49660 | 69.40167 | 29736 ft | 471 kts | 251° |
| 2026-04-28 14:51 | 50.48518 | 69.35337 | 30002 ft | 473 kts | 251° |
| 2026-04-28 14:52 | 50.47370 | 69.30493 | 30261 ft | 474 kts | 251° |
| 2026-04-28 14:52 | 50.46234 | 69.25707 | 30466 ft | 475 kts | 251° |
| 2026-04-28 14:52 | 50.45063 | 69.20793 | 30771 ft | 474 kts | 251° |
| 2026-04-28 14:52 | 50.43926 | 69.16022 | 31083 ft | 472 kts | 250° |
| 2026-04-28 14:53 | 50.42779 | 69.11215 | 31415 ft | 470 kts | 250° |
| 2026-04-28 14:53 | 50.41646 | 69.06478 | 31676 ft | 469 kts | 250° |
| 2026-04-28 14:53 | 50.40498 | 69.01685 | 31900 ft | 470 kts | 250° |
| 2026-04-28 14:53 | 50.39347 | 68.96895 | 32163 ft | 469 kts | 250° |
| 2026-04-28 14:54 | 50.38197 | 68.92119 | 32442 ft | 468 kts | 250° |
| 2026-04-28 14:54 | 50.37047 | 68.87358 | 32720 ft | 467 kts | 250° |
| 2026-04-28 14:54 | 50.35897 | 68.82601 | 32949 ft | 467 kts | 250° |
| 2026-04-28 14:54 | 50.34748 | 68.77855 | 33229 ft | 466 kts | 250° |
| 2026-04-28 14:55 | 50.33600 | 68.73127 | 33577 ft | 464 kts | 250° |
| 2026-04-28 14:55 | 50.32456 | 68.68416 | 33905 ft | 461 kts | 250° |
| 2026-04-28 14:55 | 50.31314 | 68.63727 | 34172 ft | 461 kts | 250° |
| 2026-04-28 14:55 | 50.30172 | 68.59054 | 34364 ft | 461 kts | 250° |
| 2026-04-28 14:56 | 50.29023 | 68.54366 | 34582 ft | 460 kts | 250° |
| 2026-04-28 14:56 | 50.27877 | 68.49698 | 34810 ft | 459 kts | 250° |
| 2026-04-28 14:56 | 50.26731 | 68.45039 | 35038 ft | 459 kts | 250° |
| 2026-04-28 14:56 | 50.25587 | 68.40395 | 35250 ft | 458 kts | 250° |
| 2026-04-28 14:57 | 50.24442 | 68.35752 | 35447 ft | 458 kts | 250° |
| 2026-04-28 14:57 | 50.23731 | 68.32873 | 35606 ft | 457 kts | 249° |
| 2026-04-28 14:57 | 50.22215 | 68.26739 | 35925 ft | 455 kts | 250° |
| 2026-04-28 14:57 | 50.21142 | 68.22088 | 36075 ft | 456 kts | 251° |
| 2026-04-28 14:58 | 50.20128 | 68.17392 | 36121 ft | 458 kts | 252° |
| 2026-04-28 14:58 | 50.18129 | 68.07933 | 36203 ft | 460 kts | 252° |
| 2026-04-28 14:59 | 50.16086 | 67.98439 | 36208 ft | 463 kts | 252° |
| 2026-04-28 14:59 | 50.14013 | 67.88963 | 36213 ft | 465 kts | 251° |
| 2026-04-28 15:00 | 50.11915 | 67.79468 | 36197 ft | 465 kts | 251° |
| 2026-04-28 15:00 | 50.09943 | 67.70568 | 36196 ft | 463 kts | 251° |
| 2026-04-28 15:01 | 50.07933 | 67.61533 | 36194 ft | 461 kts | 251° |
| 2026-04-28 15:01 | 50.05832 | 67.52126 | 36192 ft | 459 kts | 251° |
| 2026-04-28 15:02 | 50.03729 | 67.42760 | 36188 ft | 458 kts | 250° |
| 2026-04-28 15:02 | 50.01625 | 67.33427 | 36185 ft | 456 kts | 250° |
| 2026-04-28 15:03 | 49.99528 | 67.24163 | 36186 ft | 456 kts | 250° |
| 2026-04-28 15:03 | 49.97499 | 67.15225 | 36186 ft | 456 kts | 250° |
| 2026-04-28 15:04 | 49.95340 | 67.06890 | 36177 ft | 456 kts | 246° |
| 2026-04-28 15:04 | 49.92768 | 66.97899 | 36189 ft | 456 kts | 245° |
| 2026-04-28 15:05 | 49.90189 | 66.88893 | 36184 ft | 456 kts | 246° |
| 2026-04-28 15:05 | 49.87621 | 66.79894 | 36178 ft | 456 kts | 246° |
| 2026-04-28 15:06 | 49.85053 | 66.70904 | 36178 ft | 457 kts | 245° |
| 2026-04-28 15:06 | 49.82474 | 66.61915 | 36171 ft | 456 kts | 245° |
| 2026-04-28 15:07 | 49.79891 | 66.52948 | 36171 ft | 456 kts | 245° |
| 2026-04-28 15:07 | 49.77301 | 66.43987 | 36173 ft | 456 kts | 245° |
| 2026-04-28 15:08 | 49.74706 | 66.35044 | 36169 ft | 456 kts | 245° |
| 2026-04-28 15:08 | 49.72159 | 66.26147 | 36169 ft | 455 kts | 246° |
| 2026-04-28 15:09 | 49.69639 | 66.17169 | 36163 ft | 455 kts | 246° |
| 2026-04-28 15:09 | 49.67115 | 66.08200 | 36156 ft | 455 kts | 245° |
| 2026-04-28 15:10 | 49.64577 | 65.99246 | 36157 ft | 455 kts | 245° |
| 2026-04-28 15:10 | 49.62029 | 65.90310 | 36168 ft | 455 kts | 245° |
| 2026-04-28 15:11 | 49.59476 | 65.81389 | 36156 ft | 455 kts | 245° |
| 2026-04-28 15:11 | 49.56917 | 65.72476 | 36156 ft | 454 kts | 245° |
| 2026-04-28 15:12 | 49.54356 | 65.63586 | 36155 ft | 454 kts | 245° |
| 2026-04-28 15:12 | 49.51789 | 65.54710 | 36154 ft | 454 kts | 245° |
| 2026-04-28 15:13 | 49.49215 | 65.45845 | 36148 ft | 454 kts | 245° |
| 2026-04-28 15:13 | 49.46638 | 65.37004 | 36148 ft | 453 kts | 244° |
| 2026-04-28 15:14 | 49.44054 | 65.28167 | 36144 ft | 453 kts | 244° |
| 2026-04-28 15:14 | 49.41465 | 65.19350 | 36149 ft | 453 kts | 244° |
| 2026-04-28 15:15 | 49.38871 | 65.10539 | 36152 ft | 453 kts | 244° |
| 2026-04-28 15:15 | 49.36274 | 65.01751 | 36143 ft | 452 kts | 244° |
| 2026-04-28 15:16 | 49.33652 | 64.92990 | 36143 ft | 451 kts | 243° |
| 2026-04-28 15:16 | 49.30897 | 64.84352 | 36144 ft | 451 kts | 242° |
| 2026-04-28 15:17 | 49.28109 | 64.75754 | 36158 ft | 450 kts | 242° |
| 2026-04-28 15:17 | 49.25334 | 64.67160 | 36146 ft | 450 kts | 242° |
| 2026-04-28 15:18 | 49.22560 | 64.58564 | 36124 ft | 450 kts | 242° |
| 2026-04-28 15:18 | 49.19788 | 64.49990 | 36124 ft | 450 kts | 242° |
| 2026-04-28 15:19 | 49.17011 | 64.41423 | 36147 ft | 450 kts | 242° |
| 2026-04-28 15:19 | 49.14245 | 64.32926 | 36137 ft | 449 kts | 242° |
| 2026-04-28 15:20 | 49.11453 | 64.24402 | 36124 ft | 448 kts | 242° |
| 2026-04-28 15:20 | 49.08669 | 64.15888 | 36149 ft | 448 kts | 242° |
| 2026-04-28 15:21 | 49.05871 | 64.07382 | 36130 ft | 449 kts | 242° |
| 2026-04-28 15:21 | 49.03063 | 63.98873 | 36138 ft | 450 kts | 241° |
| 2026-04-28 15:22 | 49.00242 | 63.90364 | 36135 ft | 450 kts | 241° |
| 2026-04-28 15:22 | 48.97417 | 63.81858 | 36132 ft | 450 kts | 241° |
| 2026-04-28 15:23 | 48.94584 | 63.73356 | 36132 ft | 450 kts | 241° |
| 2026-04-28 15:23 | 48.91748 | 63.64872 | 36125 ft | 450 kts | 241° |
| 2026-04-28 15:24 | 48.88906 | 63.56402 | 36124 ft | 450 kts | 241° |
| 2026-04-28 15:24 | 48.86262 | 63.47795 | 36122 ft | 450 kts | 244° |
| 2026-04-28 15:25 | 48.83740 | 63.39101 | 36142 ft | 450 kts | 244° |
| 2026-04-28 15:25 | 48.81211 | 63.30423 | 36116 ft | 449 kts | 244° |
| 2026-04-28 15:26 | 48.78667 | 63.21771 | 36124 ft | 448 kts | 244° |
| 2026-04-28 15:26 | 48.76120 | 63.13150 | 36121 ft | 448 kts | 243° |
| 2026-04-28 15:27 | 48.73570 | 63.04548 | 36118 ft | 447 kts | 243° |
| 2026-04-28 15:27 | 48.71017 | 62.95966 | 36114 ft | 447 kts | 243° |
| 2026-04-28 15:28 | 48.68457 | 62.87387 | 36126 ft | 447 kts | 244° |
| 2026-04-28 15:28 | 48.65903 | 62.78835 | 36119 ft | 446 kts | 243° |
| 2026-04-28 15:29 | 48.63351 | 62.70350 | 36115 ft | 444 kts | 243° |
| 2026-04-28 15:29 | 48.60704 | 62.61915 | 36115 ft | 444 kts | 241° |
| 2026-04-28 15:30 | 48.57925 | 62.53585 | 36117 ft | 445 kts | 241° |
| 2026-04-28 15:30 | 48.55133 | 62.45273 | 36110 ft | 445 kts | 241° |
| 2026-04-28 15:31 | 48.52338 | 62.36923 | 36117 ft | 446 kts | 241° |
| 2026-04-28 15:31 | 48.49546 | 62.28570 | 36116 ft | 446 kts | 241° |
| 2026-04-28 15:32 | 48.46748 | 62.20211 | 36112 ft | 447 kts | 241° |
| 2026-04-28 15:32 | 48.43942 | 62.11857 | 36111 ft | 447 kts | 241° |
| 2026-04-28 15:33 | 48.41129 | 62.03508 | 36104 ft | 447 kts | 241° |
| 2026-04-28 15:33 | 48.38308 | 61.95161 | 36105 ft | 447 kts | 241° |
| 2026-04-28 15:34 | 48.35485 | 61.86841 | 36108 ft | 447 kts | 241° |
| 2026-04-28 15:34 | 48.32654 | 61.78524 | 36114 ft | 447 kts | 241° |
| 2026-04-28 15:35 | 48.29821 | 61.70222 | 36102 ft | 446 kts | 240° |
| 2026-04-28 15:35 | 48.25561 | 61.57792 | 36104 ft | 446 kts | 240° |
| 2026-04-28 15:36 | 48.22715 | 61.49520 | 36103 ft | 446 kts | 240° |
| 2026-04-28 15:36 | 48.19864 | 61.41266 | 36110 ft | 446 kts | 240° |
| 2026-04-28 15:37 | 48.17007 | 61.33016 | 36107 ft | 446 kts | 240° |
| 2026-04-28 15:37 | 48.14624 | 61.26154 | 36106 ft | 446 kts | 240° |
| 2026-04-28 15:38 | 48.11754 | 61.17919 | 36103 ft | 446 kts | 240° |
| 2026-04-28 15:38 | 48.08877 | 61.09687 | 36112 ft | 446 kts | 240° |
| 2026-04-28 15:39 | 48.05996 | 61.01467 | 36097 ft | 446 kts | 240° |
| 2026-04-28 15:39 | 48.03108 | 60.93254 | 36103 ft | 446 kts | 240° |
| 2026-04-28 15:40 | 48.00217 | 60.85056 | 36100 ft | 446 kts | 240° |
| 2026-04-28 15:40 | 47.97317 | 60.76863 | 36117 ft | 446 kts | 240° |
| 2026-04-28 15:41 | 47.94431 | 60.68740 | 36092 ft | 446 kts | 240° |
| 2026-04-28 15:41 | 47.91527 | 60.60582 | 36099 ft | 445 kts | 240° |
| 2026-04-28 15:42 | 47.88597 | 60.52388 | 36095 ft | 445 kts | 240° |
| 2026-04-28 15:42 | 47.85708 | 60.44324 | 36100 ft | 444 kts | 240° |
| 2026-04-28 15:43 | 47.82798 | 60.36218 | 36106 ft | 445 kts | 240° |
| 2026-04-28 15:43 | 47.79876 | 60.28107 | 36108 ft | 445 kts | 240° |
| 2026-04-28 15:44 | 47.76945 | 60.19997 | 36113 ft | 445 kts | 240° |
| 2026-04-28 15:44 | 47.74012 | 60.11912 | 36117 ft | 445 kts | 240° |
| 2026-04-28 15:45 | 47.71091 | 60.03906 | 36097 ft | 445 kts | 240° |
| 2026-04-28 15:45 | 47.68147 | 59.95845 | 36112 ft | 445 kts | 240° |
| 2026-04-28 15:46 | 47.65204 | 59.87803 | 36111 ft | 445 kts | 240° |
| 2026-04-28 15:46 | 47.62246 | 59.79743 | 36130 ft | 445 kts | 240° |
| 2026-04-28 15:47 | 47.59303 | 59.71752 | 36120 ft | 445 kts | 240° |
| 2026-04-28 15:47 | 47.56333 | 59.63713 | 36112 ft | 445 kts | 240° |
| 2026-04-28 15:48 | 47.53365 | 59.55702 | 36114 ft | 444 kts | 240° |
| 2026-04-28 15:48 | 47.50389 | 59.47694 | 36114 ft | 444 kts | 240° |
| 2026-04-28 15:49 | 47.47410 | 59.39703 | 36122 ft | 444 kts | 240° |
| 2026-04-28 15:49 | 47.44460 | 59.31684 | 36106 ft | 445 kts | 240° |
| 2026-04-28 15:50 | 47.41462 | 59.23737 | 36104 ft | 442 kts | 240° |
| 2026-04-28 15:50 | 47.38461 | 59.15830 | 36113 ft | 441 kts | 240° |
| 2026-04-28 15:51 | 47.35469 | 59.07925 | 36123 ft | 441 kts | 240° |
| 2026-04-28 15:51 | 47.32481 | 59.00024 | 36115 ft | 441 kts | 240° |
| 2026-04-28 15:52 | 47.29506 | 58.92179 | 36117 ft | 441 kts | 240° |
| 2026-04-28 15:52 | 47.26505 | 58.84292 | 36114 ft | 441 kts | 240° |
| 2026-04-28 15:53 | 47.23497 | 58.76411 | 36116 ft | 442 kts | 240° |
| 2026-04-28 15:53 | 47.20484 | 58.68543 | 36123 ft | 441 kts | 240° |
| 2026-04-28 15:54 | 47.17475 | 58.60703 | 36115 ft | 439 kts | 240° |
| 2026-04-28 15:54 | 47.14470 | 58.52904 | 36115 ft | 438 kts | 240° |
| 2026-04-28 15:55 | 47.11468 | 58.45133 | 36117 ft | 437 kts | 240° |
| 2026-04-28 15:55 | 47.08470 | 58.37392 | 36125 ft | 436 kts | 240° |
| 2026-04-28 15:56 | 47.05471 | 58.29672 | 36117 ft | 435 kts | 240° |
| 2026-04-28 15:56 | 47.02472 | 58.21971 | 36113 ft | 435 kts | 240° |
| 2026-04-28 15:57 | 46.99467 | 58.14278 | 36116 ft | 435 kts | 240° |
| 2026-04-28 15:57 | 46.96456 | 58.06594 | 36120 ft | 435 kts | 239° |
| 2026-04-28 15:58 | 46.93441 | 57.98915 | 36115 ft | 435 kts | 239° |
| 2026-04-28 15:58 | 46.90417 | 57.91235 | 36111 ft | 436 kts | 239° |
| 2026-04-28 15:59 | 46.87404 | 57.83611 | 36112 ft | 436 kts | 239° |
| 2026-04-28 15:59 | 46.84363 | 57.75938 | 36118 ft | 436 kts | 239° |
| 2026-04-28 16:00 | 46.81320 | 57.68277 | 36119 ft | 436 kts | 239° |
| 2026-04-28 16:00 | 46.78272 | 57.60627 | 36114 ft | 436 kts | 239° |
| 2026-04-28 16:01 | 46.75219 | 57.52984 | 36112 ft | 436 kts | 239° |
| 2026-04-28 16:01 | 46.72158 | 57.45343 | 36117 ft | 436 kts | 239° |
| 2026-04-28 16:02 | 46.69091 | 57.37711 | 36109 ft | 436 kts | 239° |
| 2026-04-28 16:02 | 46.66022 | 57.30096 | 36113 ft | 436 kts | 239° |
| 2026-04-28 16:03 | 46.62950 | 57.22490 | 36111 ft | 436 kts | 239° |
| 2026-04-28 16:03 | 46.59874 | 57.14896 | 36109 ft | 436 kts | 239° |
| 2026-04-28 16:04 | 46.56794 | 57.07308 | 36104 ft | 436 kts | 239° |
| 2026-04-28 16:04 | 46.53707 | 56.99732 | 36114 ft | 436 kts | 239° |
| 2026-04-28 16:05 | 46.50615 | 56.92158 | 36103 ft | 436 kts | 239° |
| 2026-04-28 16:05 | 46.47513 | 56.84586 | 36116 ft | 437 kts | 239° |
| 2026-04-28 16:06 | 46.44396 | 56.77014 | 36104 ft | 438 kts | 239° |
| 2026-04-28 16:06 | 46.41271 | 56.69444 | 36106 ft | 438 kts | 239° |
| 2026-04-28 16:07 | 46.38138 | 56.61872 | 36116 ft | 438 kts | 239° |
| 2026-04-28 16:08 | 46.33402 | 56.50451 | 36120 ft | 444 kts | 239° |
| 2026-04-28 16:08 | 46.30199 | 56.42760 | 36107 ft | 448 kts | 239° |
| 2026-04-28 16:09 | 46.25347 | 56.31146 | 36108 ft | 451 kts | 238° |
| 2026-04-28 16:10 | 46.20463 | 56.19504 | 36109 ft | 451 kts | 238° |
| 2026-04-28 16:10 | 46.15597 | 56.07956 | 36103 ft | 450 kts | 238° |
| 2026-04-28 16:11 | 46.09091 | 55.92590 | 36107 ft | 448 kts | 238° |
| 2026-04-28 16:12 | 46.04210 | 55.81115 | 36108 ft | 447 kts | 238° |
| 2026-04-28 16:13 | 45.99331 | 55.69693 | 36113 ft | 446 kts | 238° |
| 2026-04-28 16:14 | 45.93332 | 55.55704 | 36121 ft | 447 kts | 238° |
| 2026-04-28 16:15 | 45.86781 | 55.40532 | 36124 ft | 447 kts | 238° |
| 2026-04-28 16:15 | 45.83500 | 55.32949 | 36118 ft | 447 kts | 238° |
| 2026-04-28 16:16 | 45.78580 | 55.21625 | 36122 ft | 446 kts | 238° |
| 2026-04-28 16:17 | 45.73643 | 55.10313 | 36124 ft | 446 kts | 238° |
| 2026-04-28 16:17 | 45.70373 | 55.02842 | 36130 ft | 446 kts | 238° |
| 2026-04-28 16:18 | 45.67072 | 54.95321 | 36131 ft | 446 kts | 238° |
| 2026-04-28 16:18 | 45.63773 | 54.87825 | 36121 ft | 445 kts | 238° |
| 2026-04-28 16:19 | 45.60965 | 54.81459 | 36124 ft | 444 kts | 238° |
| 2026-04-28 16:19 | 45.57673 | 54.74014 | 36127 ft | 443 kts | 238° |
| 2026-04-28 16:20 | 45.54387 | 54.66600 | 36130 ft | 442 kts | 238° |
| 2026-04-28 16:20 | 45.51090 | 54.59197 | 36129 ft | 442 kts | 238° |
| 2026-04-28 16:21 | 45.47792 | 54.51821 | 36132 ft | 441 kts | 238° |
| 2026-04-28 16:21 | 45.44492 | 54.44458 | 36133 ft | 441 kts | 238° |
| 2026-04-28 16:22 | 45.41192 | 54.37111 | 36142 ft | 441 kts | 238° |
| 2026-04-28 16:22 | 45.37886 | 54.29767 | 36137 ft | 441 kts | 237° |
| 2026-04-28 16:23 | 45.34573 | 54.22428 | 36141 ft | 441 kts | 237° |
| 2026-04-28 16:23 | 45.31252 | 54.15087 | 36140 ft | 442 kts | 237° |
| 2026-04-28 16:24 | 45.27923 | 54.07751 | 36145 ft | 442 kts | 237° |
| 2026-04-28 16:24 | 45.24592 | 54.00423 | 36143 ft | 442 kts | 237° |
| 2026-04-28 16:25 | 45.21251 | 53.93097 | 36146 ft | 442 kts | 237° |
| 2026-04-28 16:25 | 45.17921 | 53.85802 | 36147 ft | 443 kts | 237° |
| 2026-04-28 16:26 | 45.15140 | 53.79708 | 36145 ft | 443 kts | 237° |
| 2026-04-28 16:26 | 45.11790 | 53.72383 | 36149 ft | 443 kts | 237° |
| 2026-04-28 16:27 | 45.08435 | 53.65068 | 36154 ft | 444 kts | 237° |
| 2026-04-28 16:28 | 45.03371 | 53.54069 | 36159 ft | 444 kts | 237° |
| 2026-04-28 16:28 | 44.99997 | 53.46761 | 36155 ft | 444 kts | 237° |
| 2026-04-28 16:29 | 44.94933 | 53.35826 | 36151 ft | 443 kts | 237° |
| 2026-04-28 16:30 | 44.89864 | 53.24923 | 36159 ft | 443 kts | 237° |
| 2026-04-28 16:30 | 44.86481 | 53.17666 | 36157 ft | 442 kts | 237° |
| 2026-04-28 16:31 | 44.83097 | 53.10428 | 36157 ft | 442 kts | 237° |
| 2026-04-28 16:31 | 44.79704 | 53.03206 | 36154 ft | 442 kts | 237° |
| 2026-04-28 16:32 | 44.76307 | 52.95996 | 36156 ft | 442 kts | 237° |
| 2026-04-28 16:32 | 44.71213 | 52.85208 | 36157 ft | 442 kts | 236° |
| 2026-04-28 16:33 | 44.68433 | 52.79339 | 36158 ft | 442 kts | 236° |
| 2026-04-28 16:33 | 44.64476 | 52.71001 | 36163 ft | 442 kts | 236° |
| 2026-04-28 16:34 | 44.61574 | 52.64902 | 36158 ft | 442 kts | 236° |
| 2026-04-28 16:34 | 44.58153 | 52.57726 | 36155 ft | 442 kts | 236° |
| 2026-04-28 16:35 | 44.54732 | 52.50573 | 36153 ft | 442 kts | 236° |
| 2026-04-28 16:35 | 44.51302 | 52.43418 | 36158 ft | 442 kts | 236° |
| 2026-04-28 16:36 | 44.47893 | 52.36321 | 36160 ft | 442 kts | 236° |
| 2026-04-28 16:36 | 44.44458 | 52.29191 | 36156 ft | 441 kts | 236° |
| 2026-04-28 16:37 | 44.41036 | 52.22096 | 36156 ft | 440 kts | 236° |
| 2026-04-28 16:38 | 44.35960 | 52.11513 | 36156 ft | 438 kts | 237° |
| 2026-04-28 16:38 | 44.32693 | 52.04338 | 36155 ft | 437 kts | 238° |
| 2026-04-28 16:39 | 44.29446 | 51.97179 | 36147 ft | 436 kts | 238° |
| 2026-04-28 16:39 | 44.26188 | 51.90054 | 36159 ft | 435 kts | 237° |
| 2026-04-28 16:40 | 44.22914 | 51.82935 | 36151 ft | 435 kts | 237° |
| 2026-04-28 16:40 | 44.19640 | 51.75835 | 36157 ft | 435 kts | 237° |
| 2026-04-28 16:41 | 44.16362 | 51.68742 | 36147 ft | 436 kts | 237° |
| 2026-04-28 16:41 | 44.13096 | 51.61694 | 36149 ft | 436 kts | 237° |
| 2026-04-28 16:42 | 44.09804 | 51.54607 | 36149 ft | 436 kts | 237° |
| 2026-04-28 16:42 | 44.06505 | 51.47532 | 36147 ft | 436 kts | 237° |
| 2026-04-28 16:43 | 44.03214 | 51.40476 | 36158 ft | 436 kts | 237° |
| 2026-04-28 16:43 | 43.99899 | 51.33388 | 36162 ft | 436 kts | 237° |
| 2026-04-28 16:44 | 43.96591 | 51.26337 | 36174 ft | 435 kts | 237° |
| 2026-04-28 16:44 | 43.93283 | 51.19299 | 36182 ft | 435 kts | 237° |
| 2026-04-28 16:45 | 43.89974 | 51.12277 | 36182 ft | 435 kts | 237° |
| 2026-04-28 16:45 | 43.86859 | 51.05103 | 36195 ft | 434 kts | 243° |
| 2026-04-28 16:46 | 43.84511 | 50.97391 | 36178 ft | 435 kts | 247° |
| 2026-04-28 16:46 | 43.82235 | 50.89632 | 36177 ft | 435 kts | 247° |
| 2026-04-28 16:47 | 43.79952 | 50.81933 | 36174 ft | 435 kts | 246° |
| 2026-04-28 16:47 | 43.77648 | 50.74198 | 36170 ft | 435 kts | 246° |
| 2026-04-28 16:48 | 43.75340 | 50.66471 | 36171 ft | 434 kts | 246° |
| 2026-04-28 16:48 | 43.73026 | 50.58754 | 36168 ft | 434 kts | 246° |
| 2026-04-28 16:49 | 43.70711 | 50.51049 | 36170 ft | 434 kts | 246° |
| 2026-04-28 16:49 | 43.68390 | 50.43349 | 36179 ft | 434 kts | 246° |
| 2026-04-28 16:50 | 43.66067 | 50.35665 | 36180 ft | 434 kts | 246° |
| 2026-04-28 16:50 | 43.63739 | 50.27990 | 36206 ft | 433 kts | 246° |
| 2026-04-28 16:51 | 43.61402 | 50.20306 | 36183 ft | 435 kts | 246° |
| 2026-04-28 16:51 | 43.59054 | 50.12607 | 36185 ft | 436 kts | 246° |
| 2026-04-28 16:52 | 43.56696 | 50.04899 | 36192 ft | 436 kts | 246° |
| 2026-04-28 16:52 | 43.54329 | 49.97185 | 36191 ft | 437 kts | 246° |
| 2026-04-28 16:53 | 43.51956 | 49.89474 | 36194 ft | 437 kts | 246° |
| 2026-04-28 16:53 | 43.49593 | 49.81814 | 36204 ft | 437 kts | 246° |
| 2026-04-28 16:54 | 43.47206 | 49.74110 | 36199 ft | 438 kts | 246° |
| 2026-04-28 16:54 | 43.44817 | 49.66412 | 36197 ft | 437 kts | 246° |
| 2026-04-28 16:55 | 43.42424 | 49.58723 | 36197 ft | 437 kts | 246° |
| 2026-04-28 16:55 | 43.40011 | 49.51039 | 36345 ft | 438 kts | 244° |
| 2026-04-28 16:55 | 43.38625 | 49.47327 | 36587 ft | 435 kts | 239° |
| 2026-04-28 16:56 | 43.37084 | 49.43754 | 36812 ft | 434 kts | 239° |
| 2026-04-28 16:56 | 43.35546 | 49.40183 | 36967 ft | 434 kts | 239° |
| 2026-04-28 16:56 | 43.34012 | 49.36610 | 37105 ft | 434 kts | 239° |
| 2026-04-28 16:56 | 43.32483 | 49.33035 | 37252 ft | 435 kts | 239° |
| 2026-04-28 16:57 | 43.30951 | 49.29453 | 37407 ft | 434 kts | 239° |
| 2026-04-28 16:57 | 43.29425 | 49.25884 | 37570 ft | 434 kts | 239° |
| 2026-04-28 16:57 | 43.27896 | 49.22308 | 37723 ft | 434 kts | 239° |
| 2026-04-28 16:57 | 43.26369 | 49.18742 | 37859 ft | 434 kts | 239° |
| 2026-04-28 16:58 | 43.24836 | 49.15168 | 37999 ft | 434 kts | 239° |
| 2026-04-28 16:58 | 43.23305 | 49.11603 | 38102 ft | 434 kts | 239° |
| 2026-04-28 16:58 | 43.21775 | 49.08041 | 38161 ft | 434 kts | 239° |
| 2026-04-28 16:59 | 43.18706 | 49.00916 | 38201 ft | 435 kts | 239° |
| 2026-04-28 16:59 | 43.15622 | 48.93771 | 38209 ft | 436 kts | 239° |
| 2026-04-28 17:00 | 43.12522 | 48.86605 | 38222 ft | 438 kts | 239° |
| 2026-04-28 17:00 | 43.09412 | 48.79434 | 38211 ft | 438 kts | 239° |
| 2026-04-28 17:01 | 43.06298 | 48.72271 | 38213 ft | 438 kts | 239° |
| 2026-04-28 17:01 | 43.03181 | 48.65120 | 38205 ft | 438 kts | 239° |
| 2026-04-28 17:02 | 43.00064 | 48.57989 | 38209 ft | 437 kts | 239° |
| 2026-04-28 17:02 | 42.96950 | 48.50879 | 38213 ft | 436 kts | 239° |
| 2026-04-28 17:03 | 42.92275 | 48.40243 | 38215 ft | 435 kts | 239° |
| 2026-04-28 17:03 | 42.89158 | 48.33169 | 38211 ft | 434 kts | 239° |
| 2026-04-28 17:04 | 42.84486 | 48.22596 | 38212 ft | 434 kts | 238° |
| 2026-04-28 17:05 | 42.79806 | 48.12043 | 38209 ft | 434 kts | 238° |
| 2026-04-28 17:06 | 42.75137 | 48.01554 | 38215 ft | 434 kts | 238° |
| 2026-04-28 17:06 | 42.70435 | 47.91023 | 38226 ft | 434 kts | 238° |
| 2026-04-28 17:07 | 42.67290 | 47.84009 | 38219 ft | 435 kts | 238° |
| 2026-04-28 17:07 | 42.64127 | 47.76996 | 38212 ft | 435 kts | 238° |
| 2026-04-28 17:08 | 42.60959 | 47.69986 | 38216 ft | 436 kts | 238° |
| 2026-04-28 17:08 | 42.57781 | 47.62972 | 38214 ft | 436 kts | 238° |
| 2026-04-28 17:09 | 42.54600 | 47.55959 | 38213 ft | 437 kts | 238° |
| 2026-04-28 17:09 | 42.51411 | 47.48946 | 38216 ft | 437 kts | 238° |
| 2026-04-28 17:10 | 42.48214 | 47.41934 | 38209 ft | 437 kts | 238° |
| 2026-04-28 17:10 | 42.45012 | 47.34928 | 38197 ft | 437 kts | 238° |
| 2026-04-28 17:11 | 42.41813 | 47.27938 | 38191 ft | 437 kts | 238° |
| 2026-04-28 17:11 | 42.38606 | 47.20957 | 38199 ft | 436 kts | 238° |
| 2026-04-28 17:12 | 42.35405 | 47.14003 | 38165 ft | 436 kts | 238° |
| 2026-04-28 17:12 | 42.32200 | 47.07052 | 38165 ft | 436 kts | 237° |
| 2026-04-28 17:13 | 42.28990 | 47.00107 | 38153 ft | 436 kts | 237° |
| 2026-04-28 17:13 | 42.25791 | 46.93206 | 38156 ft | 436 kts | 237° |
| 2026-04-28 17:14 | 42.22567 | 46.86265 | 38156 ft | 437 kts | 237° |
| 2026-04-28 17:14 | 42.19330 | 46.79314 | 38151 ft | 437 kts | 237° |
| 2026-04-28 17:15 | 42.16092 | 46.72373 | 38144 ft | 438 kts | 237° |
| 2026-04-28 17:15 | 42.12843 | 46.65423 | 38159 ft | 439 kts | 237° |
| 2026-04-28 17:16 | 42.10134 | 46.59643 | 38164 ft | 439 kts | 237° |
| 2026-04-28 17:16 | 42.06877 | 46.52706 | 38163 ft | 438 kts | 237° |
| 2026-04-28 17:17 | 42.03616 | 46.45778 | 38187 ft | 438 kts | 237° |
| 2026-04-28 17:17 | 42.00353 | 46.38856 | 38186 ft | 438 kts | 237° |
| 2026-04-28 17:18 | 41.97116 | 46.31917 | 38176 ft | 438 kts | 240° |
| 2026-04-28 17:18 | 41.94566 | 46.24492 | 38216 ft | 439 kts | 248° |
| 2026-04-28 17:19 | 41.92744 | 46.16653 | 38191 ft | 440 kts | 251° |
| 2026-04-28 17:19 | 41.90983 | 46.08777 | 38185 ft | 441 kts | 251° |
| 2026-04-28 17:20 | 41.89492 | 46.02182 | 38193 ft | 441 kts | 251° |
| 2026-04-28 17:20 | 41.87401 | 45.93028 | 38191 ft | 441 kts | 251° |
| 2026-04-28 17:21 | 41.85594 | 45.85161 | 38183 ft | 442 kts | 251° |
| 2026-04-28 17:22 | 41.82868 | 45.73348 | 38186 ft | 442 kts | 250° |
| 2026-04-28 17:22 | 41.81047 | 45.65478 | 38186 ft | 442 kts | 250° |
| 2026-04-28 17:23 | 41.78294 | 45.53649 | 38172 ft | 444 kts | 250° |
| 2026-04-28 17:23 | 41.76448 | 45.45752 | 38160 ft | 445 kts | 250° |
| 2026-04-28 17:24 | 41.74595 | 45.37845 | 38143 ft | 445 kts | 250° |
| 2026-04-28 17:24 | 41.72735 | 45.29934 | 38149 ft | 446 kts | 250° |
| 2026-04-28 17:25 | 41.70442 | 45.17866 | 38150 ft | 448 kts | 256° |
| 2026-04-28 17:26 | 41.69251 | 45.09688 | 38128 ft | 448 kts | 256° |
| 2026-04-28 17:26 | 41.68031 | 45.01525 | 38128 ft | 448 kts | 256° |
| 2026-04-28 17:27 | 41.66795 | 44.93352 | 38180 ft | 448 kts | 256° |
| 2026-04-28 17:27 | 41.65562 | 44.85179 | 38178 ft | 448 kts | 256° |
| 2026-04-28 17:28 | 41.64325 | 44.77005 | 38179 ft | 448 kts | 256° |
| 2026-04-28 17:28 | 41.62458 | 44.64752 | 38150 ft | 449 kts | 256° |
| 2026-04-28 17:29 | 41.61205 | 44.56569 | 38131 ft | 449 kts | 256° |
| 2026-04-28 17:30 | 41.59448 | 44.44262 | 38112 ft | 451 kts | 259° |
| 2026-04-28 17:30 | 41.58146 | 44.31825 | 38118 ft | 451 kts | 259° |
| 2026-04-28 17:31 | 41.56802 | 44.19463 | 38113 ft | 451 kts | 259° |
| 2026-04-28 17:32 | 41.55427 | 44.07029 | 38107 ft | 451 kts | 259° |
| 2026-04-28 17:32 | 41.54507 | 43.98745 | 38094 ft | 451 kts | 259° |
| 2026-04-28 17:33 | 41.53580 | 43.90463 | 38088 ft | 451 kts | 258° |
| 2026-04-28 17:33 | 41.52806 | 43.83587 | 38075 ft | 451 kts | 259° |
| 2026-04-28 17:34 | 41.51709 | 43.73917 | 38068 ft | 451 kts | 259° |
| 2026-04-28 17:34 | 41.50764 | 43.65642 | 38077 ft | 452 kts | 258° |
| 2026-04-28 17:35 | 41.49809 | 43.57345 | 38056 ft | 453 kts | 259° |
| 2026-04-28 17:35 | 41.48849 | 43.49032 | 38035 ft | 454 kts | 259° |
| 2026-04-28 17:36 | 41.47883 | 43.40725 | 38022 ft | 453 kts | 259° |
| 2026-04-28 17:36 | 41.46912 | 43.32425 | 38022 ft | 453 kts | 259° |
| 2026-04-28 17:37 | 41.45933 | 43.24134 | 38003 ft | 452 kts | 258° |
| 2026-04-28 17:37 | 41.44957 | 43.15915 | 38009 ft | 452 kts | 258° |
| 2026-04-28 17:38 | 41.43964 | 43.07592 | 38004 ft | 452 kts | 258° |
| 2026-04-28 17:38 | 41.42972 | 42.99324 | 38015 ft | 452 kts | 259° |
| 2026-04-28 17:39 | 41.41981 | 42.91121 | 37996 ft | 451 kts | 258° |
| 2026-04-28 17:40 | 41.40471 | 42.78683 | 38002 ft | 451 kts | 258° |
| 2026-04-28 17:40 | 41.39470 | 42.70490 | 38012 ft | 451 kts | 258° |
| 2026-04-28 17:41 | 41.38455 | 42.62229 | 38017 ft | 453 kts | 258° |
| 2026-04-28 17:41 | 41.37431 | 42.53972 | 38023 ft | 451 kts | 258° |
| 2026-04-28 17:42 | 41.36405 | 42.45723 | 38027 ft | 453 kts | 258° |
| 2026-04-28 17:42 | 41.35369 | 42.37448 | 38015 ft | 453 kts | 258° |
| 2026-04-28 17:43 | 41.34328 | 42.29172 | 38042 ft | 454 kts | 258° |
| 2026-04-28 17:43 | 41.33278 | 42.20888 | 38043 ft | 455 kts | 258° |
| 2026-04-28 17:44 | 41.32219 | 42.12590 | 38040 ft | 455 kts | 258° |
| 2026-04-28 17:44 | 41.31158 | 42.04302 | 38052 ft | 454 kts | 258° |
| 2026-04-28 17:45 | 41.30093 | 41.96041 | 38067 ft | 454 kts | 258° |
| 2026-04-28 17:45 | 41.29007 | 41.87780 | 38061 ft | 453 kts | 258° |
| 2026-04-28 17:46 | 41.27917 | 41.79599 | 38089 ft | 454 kts | 258° |